sensor_id;sensor_type;location;lat;lon;timestamp;P1;durP1;ratioP1;P2;durP2;ratioP2
65063;SDS011;51654;51.452;6.644;2024-01-15T00:01:16;33.37;;;14.13;;
65063;SDS011;51654;51.452;6.644;2024-01-15T00:03:43;46.60;;;17.07;;
65063;SDS011;51654;51.452;6.644;2024-01-15T00:06:13;37.60;;;14.00;;
65063;SDS011;51654;51.452;6.644;2024-01-15T00:08:41;38.00;;;15.07;;
65063;SDS011;51654;51.452;6.644;2024-01-15T00:11:08;34.13;;;15.23;;
65063;SDS011;51654;51.452;6.644;2024-01-15T00:13:35;37.73;;;13.80;;
65063;SDS011;51654;51.452;6.644;2024-01-15T00:16:03;34.73;;;13.17;;
65063;SDS011;51654;51.452;6.644;2024-01-15T00:18:31;39.43;;;14.13;;
65063;SDS011;51654;51.452;6.644;2024-01-15T00:20:59;38.93;;;13.43;;
65063;SDS011;51654;51.452;6.644;2024-01-15T00:23:26;27.97;;;12.97;;
65063;SDS011;51654;51.452;6.644;2024-01-15T00:28:21;38.80;;;12.50;;
65063;SDS011;51654;51.452;6.644;2024-01-15T01:07:39;28.33;;;13.50;;
65063;SDS011;51654;51.452;6.644;2024-01-15T01:10:07;22.63;;;11.83;;
65063;SDS011;51654;51.452;6.644;2024-01-15T01:42:08;32.77;;;13.23;;
65063;SDS011;51654;51.452;6.644;2024-01-15T01:44:36;28.03;;;12.53;;
65063;SDS011;51654;51.452;6.644;2024-01-15T01:47:03;26.90;;;11.80;;
65063;SDS011;51654;51.452;6.644;2024-01-15T01:56:53;29.37;;;12.37;;
65063;SDS011;51654;51.452;6.644;2024-01-15T01:59:20;20.83;;;10.83;;
65063;SDS011;51654;51.452;6.644;2024-01-15T02:01:48;23.50;;;11.05;;
65063;SDS011;51654;51.452;6.644;2024-01-15T02:28:53;25.70;;;9.07;;
65063;SDS011;51654;51.452;6.644;2024-01-15T05:45:29;14.83;;;5.63;;
65063;SDS011;51654;51.452;6.644;2024-01-15T05:47:56;9.43;;;4.80;;
65063;SDS011;51654;51.452;6.644;2024-01-15T05:50:24;15.73;;;6.10;;
65063;SDS011;51654;51.452;6.644;2024-01-15T05:52:51;8.40;;;5.37;;
65063;SDS011;51654;51.452;6.644;2024-01-15T05:55:18;12.43;;;5.40;;
65063;SDS011;51654;51.452;6.644;2024-01-15T06:02:40;13.20;;;3.80;;
65063;SDS011;51654;51.452;6.644;2024-01-15T06:05:08;11.60;;;4.20;;
65063;SDS011;51654;51.452;6.644;2024-01-15T06:07:35;11.33;;;3.37;;
65063;SDS011;51654;51.452;6.644;2024-01-15T06:34:42;4.50;;;1.83;;
65063;SDS011;51654;51.452;6.644;2024-01-15T06:37:09;2.93;;;1.60;;
65063;SDS011;51654;51.452;6.644;2024-01-15T06:39:37;8.07;;;2.00;;
65063;SDS011;51654;51.452;6.644;2024-01-15T06:42:04;4.70;;;1.87;;
65063;SDS011;51654;51.452;6.644;2024-01-15T06:44:31;10.20;;;2.10;;
65063;SDS011;51654;51.452;6.644;2024-01-15T14:51:52;1.73;;;1.60;;
65063;SDS011;51654;51.452;6.644;2024-01-15T14:54:19;2.73;;;1.67;;
65063;SDS011;51654;51.452;6.644;2024-01-15T16:15:44;3.80;;;2.50;;
65063;SDS011;51654;51.452;6.644;2024-01-15T16:18:11;13.80;;;5.30;;
65063;SDS011;51654;51.452;6.644;2024-01-15T16:20:59;12.67;;;6.37;;
65063;SDS011;51654;51.452;6.644;2024-01-15T16:23:46;11.53;;;5.10;;
65063;SDS011;51654;51.452;6.644;2024-01-15T16:26:34;8.00;;;4.70;;
65063;SDS011;51654;51.452;6.644;2024-01-15T16:29:02;9.40;;;4.60;;
65063;SDS011;51654;51.452;6.644;2024-01-15T16:31:30;13.60;;;6.17;;
65063;SDS011;51654;51.452;6.644;2024-01-15T16:33:57;6.97;;;4.17;;
65063;SDS011;51654;51.452;6.644;2024-01-15T16:36:31;10.80;;;5.75;;
65063;SDS011;51654;51.452;6.644;2024-01-15T16:39:00;11.70;;;5.20;;
65063;SDS011;51654;51.452;6.644;2024-01-15T16:41:28;17.03;;;5.57;;
65063;SDS011;51654;51.452;6.644;2024-01-15T16:43:55;3.40;;;3.10;;
65063;SDS011;51654;51.452;6.644;2024-01-15T16:46:23;9.80;;;5.53;;
65063;SDS011;51654;51.452;6.644;2024-01-15T16:48:51;15.17;;;5.97;;
65063;SDS011;51654;51.452;6.644;2024-01-15T16:51:19;10.00;;;6.30;;
65063;SDS011;51654;51.452;6.644;2024-01-15T16:53:46;9.47;;;5.33;;
65063;SDS011;51654;51.452;6.644;2024-01-15T16:56:14;13.17;;;5.17;;
65063;SDS011;51654;51.452;6.644;2024-01-15T16:58:41;17.80;;;5.90;;
65063;SDS011;51654;51.452;6.644;2024-01-15T17:01:09;12.37;;;5.03;;
65063;SDS011;51654;51.452;6.644;2024-01-15T17:03:37;15.97;;;6.07;;
65063;SDS011;51654;51.452;6.644;2024-01-15T17:08:31;19.63;;;8.00;;
65063;SDS011;51654;51.452;6.644;2024-01-15T17:10:59;25.77;;;8.93;;
65063;SDS011;51654;51.452;6.644;2024-01-15T17:13:28;25.23;;;8.83;;
65063;SDS011;51654;51.452;6.644;2024-01-15T17:15:55;23.70;;;8.67;;
65063;SDS011;51654;51.452;6.644;2024-01-15T17:18:22;11.80;;;6.60;;
65063;SDS011;51654;51.452;6.644;2024-01-15T17:20:50;14.13;;;4.90;;
65063;SDS011;51654;51.452;6.644;2024-01-15T17:23:17;11.33;;;6.33;;
65063;SDS011;51654;51.452;6.644;2024-01-15T17:25:45;23.83;;;8.17;;
65063;SDS011;51654;51.452;6.644;2024-01-15T17:28:12;25.97;;;9.87;;
65063;SDS011;51654;51.452;6.644;2024-01-15T17:30:40;26.97;;;9.57;;
65063;SDS011;51654;51.452;6.644;2024-01-15T17:33:07;11.57;;;4.77;;
65063;SDS011;51654;51.452;6.644;2024-01-15T17:35:34;14.67;;;5.27;;
65063;SDS011;51654;51.452;6.644;2024-01-15T17:38:02;10.27;;;3.93;;
65063;SDS011;51654;51.452;6.644;2024-01-15T17:40:29;15.60;;;3.67;;
65063;SDS011;51654;51.452;6.644;2024-01-15T17:42:57;5.83;;;2.70;;
65063;SDS011;51654;51.452;6.644;2024-01-15T17:45:24;8.53;;;2.93;;
65063;SDS011;51654;51.452;6.644;2024-01-15T17:47:53;19.83;;;4.67;;
65063;SDS011;51654;51.452;6.644;2024-01-15T17:50:21;7.67;;;3.40;;
65063;SDS011;51654;51.452;6.644;2024-01-15T17:52:48;8.27;;;3.63;;
65063;SDS011;51654;51.452;6.644;2024-01-15T17:55:15;10.50;;;3.17;;
65063;SDS011;51654;51.452;6.644;2024-01-15T17:57:43;7.30;;;2.40;;
65063;SDS011;51654;51.452;6.644;2024-01-15T18:00:11;10.47;;;3.90;;
65063;SDS011;51654;51.452;6.644;2024-01-15T18:02:40;9.47;;;3.50;;
65063;SDS011;51654;51.452;6.644;2024-01-15T18:05:09;6.43;;;3.03;;
65063;SDS011;51654;51.452;6.644;2024-01-15T18:07:36;7.37;;;3.17;;
65063;SDS011;51654;51.452;6.644;2024-01-15T18:10:04;8.27;;;3.17;;
65063;SDS011;51654;51.452;6.644;2024-01-15T18:12:31;3.73;;;2.23;;
65063;SDS011;51654;51.452;6.644;2024-01-15T18:14:59;5.20;;;2.77;;
65063;SDS011;51654;51.452;6.644;2024-01-15T18:17:27;7.43;;;2.70;;
65063;SDS011;51654;51.452;6.644;2024-01-15T18:19:55;9.07;;;2.63;;
65063;SDS011;51654;51.452;6.644;2024-01-15T18:22:23;6.73;;;2.43;;
65063;SDS011;51654;51.452;6.644;2024-01-15T18:24:50;12.70;;;2.43;;
65063;SDS011;51654;51.452;6.644;2024-01-15T18:27:17;12.27;;;2.80;;
65063;SDS011;51654;51.452;6.644;2024-01-15T18:29:45;16.53;;;3.27;;
65063;SDS011;51654;51.452;6.644;2024-01-15T18:32:12;6.50;;;2.93;;
65063;SDS011;51654;51.452;6.644;2024-01-15T18:34:40;4.67;;;2.57;;
65063;SDS011;51654;51.452;6.644;2024-01-15T18:37:09;5.13;;;3.47;;
65063;SDS011;51654;51.452;6.644;2024-01-15T18:39:36;5.63;;;2.93;;
65063;SDS011;51654;51.452;6.644;2024-01-15T18:42:04;8.67;;;3.47;;
65063;SDS011;51654;51.452;6.644;2024-01-15T18:44:31;7.90;;;2.50;;
65063;SDS011;51654;51.452;6.644;2024-01-15T18:46:58;9.83;;;3.97;;
65063;SDS011;51654;51.452;6.644;2024-01-15T18:49:26;11.73;;;3.43;;
65063;SDS011;51654;51.452;6.644;2024-01-15T18:51:53;17.00;;;4.77;;
65063;SDS011;51654;51.452;6.644;2024-01-15T18:54:23;6.83;;;2.60;;
65063;SDS011;51654;51.452;6.644;2024-01-15T18:56:50;13.37;;;2.90;;
65063;SDS011;51654;51.452;6.644;2024-01-15T19:01:46;3.13;;;2.67;;
65063;SDS011;51654;51.452;6.644;2024-01-15T19:04:13;7.80;;;2.50;;
65063;SDS011;51654;51.452;6.644;2024-01-15T19:19:01;7.60;;;3.40;;
65063;SDS011;51654;51.452;6.644;2024-01-15T19:21:29;10.97;;;3.50;;
65063;SDS011;51654;51.452;6.644;2024-01-15T19:23:57;16.17;;;3.67;;
65063;SDS011;51654;51.452;6.644;2024-01-15T19:26:25;9.83;;;2.50;;
65063;SDS011;51654;51.452;6.644;2024-01-15T19:28:52;12.23;;;4.47;;
65063;SDS011;51654;51.452;6.644;2024-01-15T19:31:19;12.00;;;3.70;;
65063;SDS011;51654;51.452;6.644;2024-01-15T19:33:47;3.67;;;2.60;;
65063;SDS011;51654;51.452;6.644;2024-01-15T19:36:24;8.90;;;3.93;;
65063;SDS011;51654;51.452;6.644;2024-01-15T19:38:55;8.90;;;2.43;;
65063;SDS011;51654;51.452;6.644;2024-01-15T19:48:45;13.10;;;2.93;;
65063;SDS011;51654;51.452;6.644;2024-01-15T19:51:12;15.20;;;5.20;;
65063;SDS011;51654;51.452;6.644;2024-01-15T19:53:42;10.63;;;3.73;;
65063;SDS011;51654;51.452;6.644;2024-01-15T19:56:09;7.67;;;3.47;;
65063;SDS011;51654;51.452;6.644;2024-01-15T19:58:37;14.90;;;3.00;;
65063;SDS011;51654;51.452;6.644;2024-01-15T20:01:04;14.53;;;3.23;;
65063;SDS011;51654;51.452;6.644;2024-01-15T20:03:32;7.40;;;3.40;;
65063;SDS011;51654;51.452;6.644;2024-01-15T20:05:59;13.30;;;3.67;;
65063;SDS011;51654;51.452;6.644;2024-01-15T20:08:27;12.23;;;3.60;;
65063;SDS011;51654;51.452;6.644;2024-01-15T20:10:54;13.93;;;3.83;;
65063;SDS011;51654;51.452;6.644;2024-01-15T20:13:25;5.43;;;3.70;;
65063;SDS011;51654;51.452;6.644;2024-01-15T20:15:52;15.30;;;5.87;;
65063;SDS011;51654;51.452;6.644;2024-01-15T20:18:20;18.80;;;6.67;;
65063;SDS011;51654;51.452;6.644;2024-01-15T20:20:48;26.33;;;8.10;;
65063;SDS011;51654;51.452;6.644;2024-01-15T20:23:15;18.07;;;6.57;;
65063;SDS011;51654;51.452;6.644;2024-01-15T20:25:44;11.83;;;5.07;;
65063;SDS011;51654;51.452;6.644;2024-01-15T20:28:13;17.57;;;5.73;;
65063;SDS011;51654;51.452;6.644;2024-01-15T20:30:40;22.93;;;6.20;;
65063;SDS011;51654;51.452;6.644;2024-01-15T20:33:07;11.77;;;4.13;;
65063;SDS011;51654;51.452;6.644;2024-01-15T20:35:35;23.17;;;4.37;;
65063;SDS011;51654;51.452;6.644;2024-01-15T20:38:02;13.00;;;5.60;;
65063;SDS011;51654;51.452;6.644;2024-01-15T20:40:30;18.47;;;4.43;;
65063;SDS011;51654;51.452;6.644;2024-01-15T20:43:00;5.57;;;3.10;;
65063;SDS011;51654;51.452;6.644;2024-01-15T20:45:30;23.27;;;5.40;;
65063;SDS011;51654;51.452;6.644;2024-01-15T20:47:59;6.80;;;3.23;;
65063;SDS011;51654;51.452;6.644;2024-01-15T20:50:27;28.83;;;4.33;;
65063;SDS011;51654;51.452;6.644;2024-01-15T20:52:54;11.27;;;4.60;;
65063;SDS011;51654;51.452;6.644;2024-01-15T20:55:21;15.43;;;4.07;;
65063;SDS011;51654;51.452;6.644;2024-01-15T20:57:49;16.93;;;4.77;;
65063;SDS011;51654;51.452;6.644;2024-01-15T21:00:16;8.53;;;3.17;;
65063;SDS011;51654;51.452;6.644;2024-01-15T21:02:44;12.93;;;4.00;;
65063;SDS011;51654;51.452;6.644;2024-01-15T21:05:11;10.03;;;4.30;;
65063;SDS011;51654;51.452;6.644;2024-01-15T21:07:39;16.00;;;5.37;;
65063;SDS011;51654;51.452;6.644;2024-01-15T21:10:06;3.43;;;2.73;;
65063;SDS011;51654;51.452;6.644;2024-01-15T21:12:34;11.23;;;4.90;;
65063;SDS011;51654;51.452;6.644;2024-01-15T21:15:01;8.43;;;3.77;;
65063;SDS011;51654;51.452;6.644;2024-01-15T21:17:29;6.87;;;4.00;;
65063;SDS011;51654;51.452;6.644;2024-01-15T21:19:58;15.70;;;4.57;;
65063;SDS011;51654;51.452;6.644;2024-01-15T21:22:26;11.63;;;3.90;;
65063;SDS011;51654;51.452;6.644;2024-01-15T21:24:55;7.90;;;3.83;;
65063;SDS011;51654;51.452;6.644;2024-01-15T21:27:22;6.30;;;3.07;;
65063;SDS011;51654;51.452;6.644;2024-01-15T21:29:49;10.93;;;4.23;;
65063;SDS011;51654;51.452;6.644;2024-01-15T21:32:17;10.00;;;3.43;;
65063;SDS011;51654;51.452;6.644;2024-01-15T21:34:44;9.83;;;4.27;;
65063;SDS011;51654;51.452;6.644;2024-01-15T21:37:12;8.03;;;3.30;;
65063;SDS011;51654;51.452;6.644;2024-01-15T21:39:40;9.93;;;4.50;;
65063;SDS011;51654;51.452;6.644;2024-01-15T21:42:09;12.23;;;4.20;;
65063;SDS011;51654;51.452;6.644;2024-01-15T21:44:41;13.73;;;4.70;;
65063;SDS011;51654;51.452;6.644;2024-01-15T21:47:10;8.17;;;4.27;;
65063;SDS011;51654;51.452;6.644;2024-01-15T21:49:37;22.63;;;8.43;;
65063;SDS011;51654;51.452;6.644;2024-01-15T21:52:05;17.47;;;6.07;;
65063;SDS011;51654;51.452;6.644;2024-01-15T21:54:32;7.27;;;4.33;;
65063;SDS011;51654;51.452;6.644;2024-01-15T21:57:00;10.67;;;4.00;;
65063;SDS011;51654;51.452;6.644;2024-01-15T21:59:27;11.33;;;4.13;;
65063;SDS011;51654;51.452;6.644;2024-01-15T22:01:58;9.07;;;3.90;;
65063;SDS011;51654;51.452;6.644;2024-01-15T22:38:54;11.77;;;4.67;;
65063;SDS011;51654;51.452;6.644;2024-01-15T22:41:21;17.33;;;4.53;;
65063;SDS011;51654;51.452;6.644;2024-01-15T22:43:49;8.10;;;3.63;;
65063;SDS011;51654;51.452;6.644;2024-01-15T22:46:16;6.03;;;3.90;;
65063;SDS011;51654;51.452;6.644;2024-01-15T22:48:43;13.63;;;4.63;;
65063;SDS011;51654;51.452;6.644;2024-01-15T22:51:11;5.43;;;4.13;;
65063;SDS011;51654;51.452;6.644;2024-01-15T22:53:39;7.27;;;3.80;;
65063;SDS011;51654;51.452;6.644;2024-01-15T22:56:06;14.50;;;4.73;;
65063;SDS011;51654;51.452;6.644;2024-01-15T22:58:34;13.17;;;3.77;;
65063;SDS011;51654;51.452;6.644;2024-01-15T23:01:01;14.37;;;6.10;;
65063;SDS011;51654;51.452;6.644;2024-01-15T23:03:29;3.40;;;3.13;;
65063;SDS011;51654;51.452;6.644;2024-01-15T23:05:56;2.77;;;2.67;;
65063;SDS011;51654;51.452;6.644;2024-01-15T23:08:24;5.17;;;3.73;;
65063;SDS011;51654;51.452;6.644;2024-01-15T23:10:51;8.97;;;3.30;;
65063;SDS011;51654;51.452;6.644;2024-01-15T23:13:19;4.60;;;3.27;;
65063;SDS011;51654;51.452;6.644;2024-01-15T23:15:46;7.47;;;4.40;;
65063;SDS011;51654;51.452;6.644;2024-01-15T23:18:13;2.97;;;2.73;;
65063;SDS011;51654;51.452;6.644;2024-01-15T23:20:41;12.70;;;4.33;;
65063;SDS011;51654;51.452;6.644;2024-01-15T23:23:08;6.90;;;3.20;;
65063;SDS011;51654;51.452;6.644;2024-01-15T23:25:36;11.30;;;3.10;;
65063;SDS011;51654;51.452;6.644;2024-01-15T23:28:04;12.50;;;3.20;;
65063;SDS011;51654;51.452;6.644;2024-01-15T23:30:32;6.83;;;3.93;;
65063;SDS011;51654;51.452;6.644;2024-01-15T23:33:00;10.10;;;2.70;;
65063;SDS011;51654;51.452;6.644;2024-01-15T23:35:27;5.33;;;3.10;;
65063;SDS011;51654;51.452;6.644;2024-01-15T23:37:55;10.00;;;3.37;;
65063;SDS011;51654;51.452;6.644;2024-01-15T23:40:22;4.77;;;3.03;;
65063;SDS011;51654;51.452;6.644;2024-01-15T23:42:49;4.80;;;3.10;;
65063;SDS011;51654;51.452;6.644;2024-01-15T23:45:17;7.93;;;4.20;;
65063;SDS011;51654;51.452;6.644;2024-01-15T23:47:44;3.83;;;2.70;;
65063;SDS011;51654;51.452;6.644;2024-01-15T23:50:12;15.83;;;3.93;;
65063;SDS011;51654;51.452;6.644;2024-01-15T23:52:39;8.60;;;3.03;;
65063;SDS011;51654;51.452;6.644;2024-01-15T23:55:06;12.83;;;3.43;;
65063;SDS011;51654;51.452;6.644;2024-01-15T23:57:34;5.53;;;2.87;;
